createdAt,value
2022-09-15T00:01:48.655Z,11.13
2022-09-15T00:04:19.258Z,11.09
2022-09-15T00:06:49.319Z,11.08
2022-09-15T00:09:20.956Z,11.06
2022-09-15T00:11:50.858Z,11.07
2022-09-15T00:14:21.586Z,11.03
2022-09-15T00:16:52.211Z,11.00
2022-09-15T00:19:22.262Z,11.02
2022-09-15T00:21:52.257Z,11.04
2022-09-15T00:24:23.797Z,11.07
2022-09-15T00:26:53.895Z,11.07
2022-09-15T00:29:24.045Z,10.98
2022-09-15T00:31:54.040Z,10.97
2022-09-15T00:34:24.108Z,10.97
2022-09-15T00:36:54.115Z,10.97
2022-09-15T00:39:25.627Z,10.99
2022-09-15T00:41:55.534Z,10.94
2022-09-15T00:45:01.657Z,10.92
2022-09-15T00:47:36.337Z,10.89
2022-09-15T00:52:12.299Z,10.91
2022-09-15T00:54:47.822Z,10.94
2022-09-15T00:57:22.464Z,10.93
2022-09-15T00:59:53.438Z,10.91
2022-09-15T01:02:26.990Z,10.90
2022-09-15T01:04:58.997Z,10.88
2022-09-15T01:07:39.788Z,10.80
2022-09-15T01:10:14.294Z,10.78
2022-09-15T01:12:44.795Z,10.79
2022-09-15T01:15:14.878Z,10.84
2022-09-15T01:18:03.398Z,10.88
2022-09-15T01:21:08.617Z,10.91
2022-09-15T01:24:39.659Z,10.89
2022-09-15T01:27:40.961Z,10.78
2022-09-15T01:30:15.230Z,10.76
2022-09-15T01:33:08.595Z,10.80
2022-09-15T01:35:55.156Z,10.82
2022-09-15T01:38:37.340Z,10.79
2022-09-15T01:41:13.784Z,10.77
2022-09-15T01:43:52.007Z,10.76
2022-09-15T01:46:28.299Z,10.78
2022-09-15T01:48:59.717Z,10.76
2022-09-15T01:51:31.204Z,10.75
2022-09-15T01:54:04.878Z,10.78
2022-09-15T01:56:35.115Z,10.76
2022-09-15T01:59:05.975Z,10.80
2022-09-15T02:01:44.235Z,10.81
2022-09-15T02:04:23.318Z,10.79
2022-09-15T02:07:02.855Z,10.84
2022-09-15T02:09:38.879Z,10.89
2022-09-15T02:12:17.958Z,10.92
2022-09-15T02:14:57.219Z,10.92
2022-09-15T02:17:33.104Z,10.92
2022-09-15T02:20:15.919Z,10.95
2022-09-15T02:22:49.418Z,10.95
2022-09-15T02:25:24.537Z,10.85
2022-09-15T02:27:57.774Z,10.86
2022-09-15T02:30:29.361Z,10.90
2022-09-15T02:33:07.143Z,10.88
2022-09-15T02:35:39.239Z,10.87
2022-09-15T02:38:11.554Z,10.81
2022-09-15T02:40:45.819Z,10.74
2022-09-15T02:43:19.695Z,10.72
2022-09-15T02:45:49.934Z,10.77
2022-09-15T02:48:21.355Z,10.77
2022-09-15T02:50:51.318Z,10.81
2022-09-15T02:53:21.278Z,10.80
2022-09-15T02:55:51.348Z,10.86
2022-09-15T02:58:21.228Z,10.80
2022-09-15T03:00:51.180Z,10.78
2022-09-15T03:03:22.695Z,10.83
2022-09-15T03:05:52.768Z,10.89
2022-09-15T03:08:22.838Z,10.94
2022-09-15T03:10:52.836Z,10.93
2022-09-15T03:13:23.260Z,10.93
2022-09-15T03:15:53.307Z,10.89
2022-09-15T03:18:24.895Z,10.88
2022-09-15T03:20:59.643Z,10.86
2022-09-15T03:23:29.775Z,10.92
2022-09-15T03:26:00.465Z,10.93
2022-09-15T03:28:30.834Z,10.92
2022-09-15T03:31:00.985Z,10.91
2022-09-15T03:33:32.731Z,10.96
2022-09-15T03:36:03.517Z,10.98
2022-09-15T03:38:33.655Z,10.99
2022-09-15T03:41:06.735Z,10.99
2022-09-15T03:43:37.397Z,10.91
2022-09-15T03:46:09.972Z,10.86
2022-09-15T03:48:42.119Z,10.85
2022-09-15T03:53:06.841Z,10.87
2022-09-15T03:55:36.841Z,10.87
2022-09-15T03:58:06.858Z,10.85
2022-09-15T04:00:36.932Z,10.87
2022-09-15T04:03:07.658Z,10.87
2022-09-15T04:05:37.691Z,10.85
2022-09-15T04:08:09.359Z,10.88
2022-09-15T04:10:41.955Z,10.93
2022-09-15T04:13:11.745Z,10.97
2022-09-15T04:15:41.598Z,11.00
2022-09-15T04:18:12.436Z,11.11
2022-09-15T04:20:43.507Z,11.11
2022-09-15T04:23:15.063Z,11.09
2022-09-15T04:25:44.999Z,11.10
2022-09-15T04:28:15.038Z,11.12
2022-09-15T04:30:44.954Z,11.13
2022-09-15T04:33:14.876Z,11.19
2022-09-15T04:35:44.859Z,11.23
2022-09-15T04:38:16.422Z,11.29
2022-09-15T04:40:46.363Z,11.36
2022-09-15T04:43:16.485Z,11.39
2022-09-15T04:45:46.359Z,11.44
2022-09-15T04:48:16.546Z,11.54
2022-09-15T04:50:46.635Z,11.62
2022-09-15T04:53:18.600Z,11.67
2022-09-15T04:55:48.551Z,11.75
2022-09-15T04:58:18.520Z,11.85
2022-09-15T05:00:48.419Z,11.97
2022-09-15T05:03:18.516Z,12.12
2022-09-15T05:05:50.736Z,12.26
2022-09-15T05:08:22.158Z,12.39
2022-09-15T05:10:52.140Z,12.51
2022-09-15T05:13:22.164Z,12.63
2022-09-15T05:15:52.228Z,12.76
2022-09-15T05:18:22.299Z,12.88
2022-09-15T05:20:52.420Z,13.05
2022-09-15T05:23:23.774Z,13.23
2022-09-15T05:25:58.475Z,13.39
2022-09-15T05:28:28.715Z,13.55
2022-09-15T05:30:59.093Z,13.73
2022-09-15T05:33:29.118Z,13.97
2022-09-15T05:36:01.138Z,14.14
2022-09-15T05:38:35.063Z,14.33
2022-09-15T05:41:06.038Z,14.54
2022-09-15T05:43:37.575Z,14.71
2022-09-15T05:46:09.214Z,14.90
2022-09-15T05:48:39.589Z,15.14
2022-09-15T05:51:09.879Z,15.38
2022-09-15T05:53:42.280Z,15.68
2022-09-15T05:56:14.577Z,15.89
2022-09-15T05:58:46.798Z,16.07
2022-09-15T06:01:19.347Z,16.24
2022-09-15T06:03:50.199Z,16.39
2022-09-15T06:06:22.134Z,16.55
2022-09-15T06:08:59.491Z,16.75
2022-09-15T06:11:31.780Z,16.98
2022-09-15T06:14:03.550Z,17.21
2022-09-15T06:16:36.046Z,17.46
2022-09-15T06:19:06.514Z,17.68
2022-09-15T06:21:37.303Z,17.90
2022-09-15T06:24:11.363Z,18.03
2022-09-15T06:26:41.337Z,18.25
2022-09-15T06:29:14.839Z,18.48
2022-09-15T06:31:44.934Z,18.71
2022-09-15T06:34:14.879Z,18.90
2022-09-15T06:36:44.880Z,19.07
2022-09-15T06:39:16.187Z,19.24
2022-09-15T06:42:01.847Z,19.45
2022-09-15T06:44:33.457Z,19.71
2022-09-15T06:47:03.487Z,19.90
2022-09-15T06:53:06.646Z,20.37
2022-09-15T06:55:36.662Z,20.56
2022-09-15T06:58:06.722Z,20.79
2022-09-15T07:00:36.718Z,21.00
2022-09-15T07:03:06.585Z,21.18
2022-09-15T07:05:36.761Z,21.35
2022-09-15T07:08:08.346Z,21.51
2022-09-15T07:10:38.262Z,21.68
2022-09-15T07:13:08.267Z,21.84
2022-09-15T07:15:38.800Z,22.00
2022-09-15T07:18:09.477Z,22.21
2022-09-15T07:20:42.297Z,22.44
2022-09-15T07:23:13.776Z,22.61
2022-09-15T07:25:44.520Z,22.79
2022-09-15T07:28:14.821Z,22.93
2022-09-15T07:30:45.755Z,23.10
2022-09-15T07:33:17.103Z,23.23
2022-09-15T07:35:48.076Z,23.35
2022-09-15T07:38:19.465Z,23.48
2022-09-15T07:40:49.720Z,23.62
2022-09-15T07:43:19.838Z,23.81
2022-09-15T07:45:50.142Z,23.93
2022-09-15T07:48:23.244Z,24.00
2022-09-15T07:50:56.454Z,24.15
2022-09-15T07:53:29.318Z,24.33
2022-09-15T07:55:59.557Z,24.45
2022-09-15T07:58:30.049Z,24.67
2022-09-15T08:01:05.881Z,24.81
2022-09-15T08:03:36.298Z,24.96
2022-09-15T08:06:07.058Z,25.16
2022-09-15T08:08:40.315Z,25.27
2022-09-15T08:11:15.107Z,25.31
2022-09-15T08:13:48.159Z,25.38
2022-09-15T08:16:20.646Z,25.43
2022-09-15T08:18:51.343Z,25.53
2022-09-15T08:21:23.698Z,25.60
2022-09-15T08:23:57.097Z,25.66
2022-09-15T08:26:29.093Z,25.78
2022-09-15T08:28:59.775Z,25.88
2022-09-15T08:31:29.834Z,25.90
2022-09-15T08:34:04.337Z,25.92
2022-09-15T08:36:34.260Z,25.98
2022-09-15T08:39:07.079Z,26.06
2022-09-15T08:41:41.858Z,26.13
2022-09-15T08:44:28.537Z,26.22
2022-09-15T08:47:05.673Z,26.34
2022-09-15T08:49:52.463Z,26.44
2022-09-15T08:52:30.677Z,26.48
2022-09-15T08:55:08.278Z,26.49
2022-09-15T08:57:38.368Z,26.55
2022-09-15T09:00:17.065Z,26.66
2022-09-15T09:03:25.936Z,26.75
2022-09-15T09:06:05.635Z,26.81
2022-09-15T09:09:18.154Z,26.85
2022-09-15T09:12:04.236Z,26.93
2022-09-15T09:14:48.524Z,26.96
2022-09-15T09:17:41.560Z,27.10
2022-09-15T09:20:32.410Z,27.14
2022-09-15T09:23:05.858Z,27.16
2022-09-15T09:25:36.487Z,27.21
2022-09-15T09:28:14.815Z,27.23
2022-09-15T09:30:45.283Z,27.13
2022-09-15T09:33:29.797Z,27.11
2022-09-15T09:36:02.881Z,27.09
2022-09-15T09:38:37.828Z,27.15
2022-09-15T09:41:14.197Z,27.20
2022-09-15T09:43:47.681Z,27.26
2022-09-15T09:46:20.578Z,27.34
2022-09-15T09:48:56.719Z,27.33
2022-09-15T09:53:29.415Z,27.39
2022-09-15T09:56:25.134Z,27.44
2022-09-15T09:58:56.875Z,27.37
2022-09-15T10:01:28.763Z,27.44
2022-09-15T10:04:21.476Z,27.54
2022-09-15T10:06:51.494Z,27.54
2022-09-15T10:09:23.359Z,27.61
2022-09-15T10:11:57.862Z,27.75
2022-09-15T10:14:30.936Z,27.84
2022-09-15T10:17:08.207Z,27.99
2022-09-15T10:19:47.979Z,28.02
2022-09-15T10:22:29.036Z,28.04
2022-09-15T10:25:02.060Z,28.09
2022-09-15T10:27:35.286Z,28.12
2022-09-15T10:30:21.754Z,28.11
2022-09-15T10:32:51.899Z,28.10
2022-09-15T10:35:23.383Z,28.13
2022-09-15T10:38:07.398Z,28.37
2022-09-15T10:40:48.099Z,28.49
2022-09-15T10:43:36.883Z,28.47
2022-09-15T10:46:14.646Z,28.50
2022-09-15T10:49:03.536Z,28.69
2022-09-15T10:51:49.697Z,28.75
2022-09-15T10:54:47.181Z,28.71
2022-09-15T10:57:36.958Z,28.67
2022-09-15T11:00:12.980Z,28.64
2022-09-15T11:03:14.496Z,28.56
2022-09-15T11:05:56.075Z,28.52
2022-09-15T11:08:53.266Z,28.40
2022-09-15T11:11:33.838Z,28.34
2022-09-15T11:14:24.537Z,28.38
2022-09-15T11:17:14.503Z,28.46
2022-09-15T11:20:15.717Z,28.44
2022-09-15T11:22:52.099Z,28.58
2022-09-15T11:25:24.838Z,28.67
2022-09-15T11:28:01.960Z,28.77
2022-09-15T11:30:42.456Z,28.66
2022-09-15T11:33:24.283Z,28.75
2022-09-15T11:36:01.074Z,28.93
2022-09-15T11:38:43.240Z,29.09
2022-09-15T11:41:38.625Z,29.17
2022-09-15T11:44:21.299Z,29.25
2022-09-15T11:47:09.658Z,29.37
2022-09-15T11:49:46.016Z,29.39
2022-09-15T11:52:36.168Z,29.39
2022-09-15T11:55:19.015Z,29.56
2022-09-15T11:57:58.917Z,29.72
2022-09-15T12:00:29.042Z,29.83
2022-09-15T12:03:23.606Z,29.79
2022-09-15T12:05:59.759Z,29.82
2022-09-15T12:08:38.075Z,29.79
2022-09-15T12:11:15.042Z,29.74
2022-09-15T12:13:45.135Z,29.68
2022-09-15T12:16:15.625Z,29.65
2022-09-15T12:18:53.032Z,29.70
2022-09-15T12:21:32.489Z,29.74
2022-09-15T12:24:11.468Z,29.72
2022-09-15T12:26:43.597Z,29.64
2022-09-15T12:29:42.246Z,29.66
2022-09-15T12:32:29.160Z,29.66
2022-09-15T12:35:13.371Z,29.59
2022-09-15T12:37:48.244Z,29.61
2022-09-15T12:40:37.068Z,29.60
2022-09-15T12:43:23.307Z,29.43
2022-09-15T12:46:00.083Z,29.19
2022-09-15T12:48:33.359Z,29.08
2022-09-15T12:53:20.565Z,28.89
2022-09-15T12:55:55.807Z,28.75
2022-09-15T12:58:36.784Z,28.57
2022-09-15T13:01:36.322Z,28.53
2022-09-15T13:04:51.785Z,28.56
2022-09-15T13:07:56.179Z,28.50
2022-09-15T13:10:39.805Z,28.40
2022-09-15T13:13:32.797Z,28.31
2022-09-15T13:16:05.351Z,28.17
2022-09-15T13:18:36.835Z,27.99
2022-09-15T13:21:16.087Z,27.72
2022-09-15T13:23:50.478Z,27.52
2022-09-15T13:26:26.277Z,27.46
2022-09-15T13:28:58.026Z,27.43
2022-09-15T13:31:41.519Z,27.38
2022-09-15T13:35:17.546Z,27.43
2022-09-15T13:38:46.510Z,27.50
2022-09-15T13:41:48.941Z,27.50
2022-09-15T13:45:03.214Z,27.47
2022-09-15T13:47:49.555Z,27.46
2022-09-15T13:50:26.840Z,27.36
2022-09-15T13:53:25.914Z,27.20
2022-09-15T13:55:57.337Z,26.92
2022-09-15T14:01:24.468Z,26.46
2022-09-15T14:03:58.835Z,26.31
2022-09-15T14:06:35.239Z,26.17
2022-09-15T14:09:12.568Z,26.04
2022-09-15T14:11:44.262Z,25.97
2022-09-15T14:14:34.321Z,25.90
2022-09-15T14:17:04.609Z,25.85
2022-09-15T14:19:37.717Z,25.83
2022-09-15T14:22:27.846Z,25.75
2022-09-15T14:24:59.698Z,25.67
2022-09-15T14:27:32.606Z,25.59
2022-09-15T14:30:06.743Z,25.47
2022-09-15T14:32:41.099Z,25.40
2022-09-15T14:35:19.765Z,25.34
2022-09-15T14:37:52.183Z,25.23
2022-09-15T14:40:29.248Z,25.11
2022-09-15T14:42:59.614Z,25.08
2022-09-15T14:48:32.078Z,24.89
2022-09-15T14:51:07.555Z,24.83
2022-09-15T14:53:41.257Z,24.83
2022-09-15T14:56:14.715Z,24.77
2022-09-15T14:58:48.559Z,24.72
2022-09-15T15:01:25.920Z,24.66
2022-09-15T15:04:04.434Z,24.57
2022-09-15T15:06:38.876Z,24.57
2022-09-15T15:09:19.926Z,24.51
2022-09-15T15:11:53.519Z,24.44
2022-09-15T15:17:06.323Z,24.36
2022-09-15T15:19:40.100Z,24.30
2022-09-15T15:22:18.337Z,24.19
2022-09-15T15:24:51.638Z,24.08
2022-09-15T15:27:43.795Z,23.96
2022-09-15T15:30:29.998Z,23.85
2022-09-15T15:33:03.134Z,23.74
2022-09-15T15:35:36.035Z,23.68
2022-09-15T15:38:09.934Z,23.59
2022-09-15T15:40:42.686Z,23.50
2022-09-15T15:43:26.647Z,23.40
2022-09-15T15:46:01.327Z,23.28
2022-09-15T15:48:38.188Z,23.21
2022-09-15T15:53:06.164Z,23.01
2022-09-15T15:55:43.495Z,22.94
2022-09-15T15:58:15.708Z,22.87
2022-09-15T16:00:48.562Z,22.79
2022-09-15T16:03:20.316Z,22.71
2022-09-15T16:05:54.114Z,22.50
2022-09-15T16:08:29.739Z,22.42
2022-09-15T16:11:00.982Z,22.31
2022-09-15T16:13:32.069Z,22.19
2022-09-15T16:16:03.735Z,22.09
2022-09-15T16:18:33.807Z,21.97
2022-09-15T16:21:03.779Z,21.87
2022-09-15T16:23:36.174Z,21.77
2022-09-15T16:26:09.334Z,21.63
2022-09-15T16:28:39.315Z,21.45
2022-09-15T16:31:13.099Z,21.34
2022-09-15T16:33:43.638Z,21.17
2022-09-15T16:36:16.678Z,21.08
2022-09-15T16:38:49.122Z,20.93
2022-09-15T16:41:23.298Z,20.82
2022-09-15T16:43:53.625Z,20.66
2022-09-15T16:46:23.717Z,20.50
2022-09-15T16:48:53.858Z,20.38
2022-09-15T16:51:30.964Z,20.31
2022-09-15T16:54:03.003Z,20.21
2022-09-15T16:56:33.067Z,20.07
2022-09-15T16:59:03.133Z,19.98
2022-09-15T17:01:33.417Z,19.91
2022-09-15T17:04:05.337Z,19.82
2022-09-15T17:06:35.315Z,19.70
2022-09-15T17:09:07.240Z,19.64
2022-09-15T17:11:37.178Z,19.57
2022-09-15T17:14:07.535Z,19.48
2022-09-15T17:16:39.662Z,19.38
2022-09-15T17:19:09.277Z,19.30
2022-09-15T17:21:39.662Z,19.26
2022-09-15T17:24:11.856Z,19.20
2022-09-15T17:26:41.778Z,19.15
2022-09-15T17:29:11.694Z,19.11
2022-09-15T17:31:41.772Z,18.96
2022-09-15T17:34:16.060Z,18.87
2022-09-15T17:36:46.239Z,18.81
2022-09-15T17:39:17.677Z,18.75
2022-09-15T17:41:47.753Z,18.68
2022-09-15T17:44:17.676Z,18.65
2022-09-15T17:46:47.542Z,18.54
2022-09-15T17:49:17.707Z,18.44
2022-09-15T17:51:47.698Z,18.44
2022-09-15T17:54:19.299Z,18.40
2022-09-15T17:56:49.313Z,18.37
2022-09-15T17:59:19.315Z,18.33
2022-09-15T18:01:49.961Z,18.19
2022-09-15T18:04:20.039Z,18.04
2022-09-15T18:06:50.074Z,17.99
2022-09-15T18:09:21.716Z,17.94
2022-09-15T18:14:29.343Z,17.83
2022-09-15T18:16:59.405Z,17.76
2022-09-15T18:19:29.388Z,17.72
2022-09-15T18:21:59.518Z,17.69
2022-09-15T18:24:31.196Z,17.63
2022-09-15T18:27:01.077Z,17.58
2022-09-15T18:29:31.099Z,17.48
2022-09-15T18:32:03.494Z,17.37
2022-09-15T18:34:34.023Z,17.37
2022-09-15T18:37:04.423Z,17.35
2022-09-15T18:39:35.927Z,17.35
2022-09-15T18:42:06.266Z,17.32
2022-09-15T18:44:36.137Z,17.28
2022-09-15T18:47:06.635Z,17.23
2022-09-15T18:53:06.814Z,17.08
2022-09-15T18:55:36.706Z,17.03
2022-09-15T18:58:06.725Z,17.00
2022-09-15T19:00:36.640Z,16.97
2022-09-15T19:03:09.748Z,16.93
2022-09-15T19:05:40.443Z,16.86
2022-09-15T19:08:12.107Z,16.82
2022-09-15T19:10:44.567Z,16.77
2022-09-15T19:13:16.007Z,16.72
2022-09-15T19:15:48.111Z,16.69
2022-09-15T19:18:19.295Z,16.66
2022-09-15T19:20:49.315Z,16.59
2022-09-15T19:23:20.795Z,16.50
2022-09-15T19:25:50.704Z,16.47
2022-09-15T19:28:20.602Z,16.47
2022-09-15T19:30:51.073Z,16.40
2022-09-15T19:33:21.202Z,16.38
2022-09-15T19:36:04.935Z,16.36
2022-09-15T19:38:43.769Z,16.30
2022-09-15T19:41:16.817Z,16.23
2022-09-15T19:43:47.069Z,16.19
2022-09-15T19:46:20.257Z,16.17
2022-09-15T19:48:50.419Z,16.21
2022-09-15T19:51:21.240Z,16.18
2022-09-15T19:53:54.972Z,16.17
2022-09-15T19:56:27.684Z,16.18
2022-09-15T19:58:59.799Z,16.20
2022-09-15T20:01:33.015Z,16.16
2022-09-15T20:04:03.635Z,16.17
2022-09-15T20:06:33.735Z,16.15
2022-09-15T20:09:05.477Z,16.19
2022-09-15T20:11:36.301Z,16.09
2022-09-15T20:14:07.534Z,16.04
2022-09-15T20:16:38.029Z,16.05
2022-09-15T20:19:08.228Z,16.09
2022-09-15T20:21:55.565Z,16.12
2022-09-15T20:24:27.819Z,16.13
2022-09-15T20:26:59.249Z,16.09
2022-09-15T20:29:29.403Z,16.07
2022-09-15T20:31:59.436Z,16.05
2022-09-15T20:34:29.457Z,16.00
2022-09-15T20:36:59.461Z,15.86
2022-09-15T20:39:31.038Z,15.73
2022-09-15T20:42:01.058Z,15.77
2022-09-15T20:44:31.164Z,15.82
2022-09-15T20:47:01.137Z,15.82
2022-09-15T20:49:31.267Z,15.85
2022-09-15T20:52:01.255Z,15.83
2022-09-15T20:54:32.938Z,15.85
2022-09-15T20:57:03.240Z,15.81
2022-09-15T20:59:33.227Z,15.74
2022-09-15T21:02:05.078Z,15.72
2022-09-15T21:04:35.670Z,15.70
2022-09-15T21:07:05.725Z,15.73
2022-09-15T21:09:37.439Z,15.66
2022-09-15T21:12:08.036Z,15.61
2022-09-15T21:14:38.019Z,15.59
2022-09-15T21:17:08.015Z,15.56
2022-09-15T21:19:39.899Z,15.49
2022-09-15T21:22:09.940Z,15.39
2022-09-15T21:24:41.355Z,15.39
2022-09-15T21:27:30.878Z,15.34
2022-09-15T21:30:00.938Z,15.29
2022-09-15T21:32:30.899Z,15.29
2022-09-15T21:35:00.849Z,15.30
2022-09-15T21:37:32.314Z,15.30
2022-09-15T21:40:04.164Z,15.27
2022-09-15T21:42:34.325Z,15.28
2022-09-15T21:45:04.302Z,15.27
2022-09-15T21:47:34.602Z,15.26
2022-09-15T21:53:06.277Z,15.19
2022-09-15T21:55:39.253Z,15.15
2022-09-15T21:58:09.238Z,15.11
2022-09-15T22:00:40.762Z,15.05
2022-09-15T22:03:11.179Z,15.07
2022-09-15T22:05:42.497Z,15.03
2022-09-15T22:08:14.679Z,15.02
2022-09-15T22:10:46.175Z,14.99
2022-09-15T22:13:16.117Z,15.01
2022-09-15T22:15:46.019Z,14.94
2022-09-15T22:18:15.984Z,14.94
2022-09-15T22:20:46.182Z,14.89
2022-09-15T22:23:18.007Z,14.90
2022-09-15T22:25:47.907Z,14.84
2022-09-15T22:28:17.805Z,14.81
2022-09-15T22:30:47.634Z,14.76
2022-09-15T22:33:17.554Z,14.76
2022-09-15T22:35:50.162Z,14.61
2022-09-15T22:38:21.884Z,14.63
2022-09-15T22:40:51.857Z,14.58
2022-09-15T22:43:21.917Z,14.57
2022-09-15T22:45:52.534Z,14.61
2022-09-15T22:48:22.486Z,14.59
2022-09-15T22:50:52.330Z,14.61
2022-09-15T22:53:23.922Z,14.60
2022-09-15T22:55:54.374Z,14.57
2022-09-15T22:58:24.304Z,14.54
2022-09-15T23:00:54.553Z,14.52
2022-09-15T23:03:24.386Z,14.51
2022-09-15T23:06:00.779Z,14.49
2022-09-15T23:08:32.815Z,14.51
2022-09-15T23:11:08.997Z,14.46
2022-09-15T23:13:39.607Z,14.44
2022-09-15T23:16:10.726Z,14.47
2022-09-15T23:18:40.860Z,14.37
2022-09-15T23:21:13.238Z,14.32
2022-09-15T23:23:48.757Z,14.25
2022-09-15T23:26:23.535Z,14.12
2022-09-15T23:28:53.805Z,14.16
2022-09-15T23:31:24.049Z,14.24
2022-09-15T23:33:54.155Z,14.25
2022-09-15T23:36:24.160Z,14.28
2022-09-15T23:38:55.635Z,14.36
2022-09-15T23:41:25.495Z,14.38
2022-09-15T23:43:55.959Z,14.34
2022-09-15T23:46:26.023Z,14.37
2022-09-15T23:48:55.980Z,14.38
2022-09-15T23:51:26.108Z,14.39
2022-09-15T23:53:57.655Z,14.39
2022-09-15T23:56:27.735Z,14.35
2022-09-15T23:58:57.714Z,14.31
